Time;durP1;ratioP1;P1;durP2;ratioP2;P2;SDS_P1;SDS_P2;PMS_P1;PMS_P2;Temp;Humidity;BMP_temperature;BMP_pressure;BME280_temperature;BME280_humidity;BME280_pressure;Samples;Min_cycle;Max_cycle;Signal;HPM_P1;HPM_P2
2023/05/17 00:01:06;;;;;;;14.60;4.00;;;;;;;7.25;97.50;99809.52;105534;1257;59640;-69
2023/05/17 00:03:55;;;;;;;13.50;3.80;;;;;;;7.27;97.53;99811.89;105618;1253;71235;-70
2023/05/17 00:06:43;;;;;;;10.10;3.20;;;;;;;7.27;97.68;99810.45;105601;1257;67937;-70
2023/05/17 00:09:32;;;;;;;10.20;3.50;;;;;;;7.28;97.87;99809.18;105836;1254;72391;-70
2023/05/17 00:12:21;;;;;;;9.70;3.50;;;;;;;7.27;97.77;99806.23;105939;1253;59599;-70
2023/05/17 00:15:13;;;;;;;13.80;3.80;;;;;;;7.27;98.08;99806.40;105629;1262;59536;-72
2023/05/17 00:18:01;;;;;;;12.90;3.70;;;;;;;7.28;98.11;99802.80;105770;1253;72772;-70
2023/05/17 00:20:49;;;;;;;9.90;3.20;;;;;;;7.30;98.07;99806.38;105769;1254;67897;-70
2023/05/17 00:23:39;;;;;;;12.10;3.20;;;;;;;7.32;98.03;99806.59;105680;1261;72779;-70
2023/05/17 00:26:27;;;;;;;12.00;3.30;;;;;;;7.32;98.18;99808.70;105861;1253;59631;-70
2023/05/17 00:29:15;;;;;;;11.30;3.20;;;;;;;7.33;98.32;99809.70;105636;1253;60325;-69
2023/05/17 00:32:05;;;;;;;11.70;3.40;;;;;;;7.32;98.39;99805.17;105526;1253;71952;-70
2023/05/17 00:34:53;;;;;;;11.50;3.60;;;;;;;7.32;98.38;99807.65;105981;1257;68873;-69
2023/05/17 00:37:46;;;;;;;10.80;4.00;;;;;;;7.32;98.48;99803.92;105530;1253;70592;-71
2023/05/17 00:40:34;;;;;;;10.30;3.90;;;;;;;7.34;98.55;99802.08;105654;1253;59666;-69
2023/05/17 00:43:24;;;;;;;14.40;3.70;;;;;;;7.35;98.63;99808.86;105887;1259;61323;-69
2023/05/17 00:46:13;;;;;;;12.90;3.60;;;;;;;7.33;98.69;99804.42;105550;1258;73001;-70
2023/05/17 00:49:02;;;;;;;13.20;3.70;;;;;;;7.34;99.14;99809.78;105356;1257;67766;-69
2023/05/17 00:51:52;;;;;;;14.00;3.70;;;;;;;7.33;99.10;99811.11;105251;1257;72784;-70
2023/05/17 00:54:41;;;;;;;10.60;3.70;;;;;;;7.33;98.83;99812.34;105273;1265;59913;-69
2023/05/17 00:57:30;;;;;;;12.80;3.50;;;;;;;7.33;98.83;99815.31;105393;1257;60129;-69
2023/05/17 01:00:21;;;;;;;15.10;4.50;;;;;;;7.34;98.87;99810.02;105216;1257;71741;-70
2023/05/17 01:03:09;;;;;;;12.00;3.00;;;;;;;7.35;99.06;99812.79;105312;1262;66664;-69
2023/05/17 01:05:57;;;;;;;9.50;3.10;;;;;;;7.34;98.87;99811.04;105447;1257;73229;-70
2023/05/17 01:08:48;;;;;;;13.70;3.30;;;;;;;7.33;99.08;99806.34;105442;1259;59858;-71
2023/05/17 01:11:54;;;;;;;11.10;3.30;;;;;;;7.32;98.99;99800.56;105488;1262;59617;-68
2023/05/17 01:15:14;;;;;;;15.10;3.80;;;;;;;7.30;99.19;99796.65;105697;1259;72255;-70
2023/05/17 01:18:35;;;;;;;10.90;3.60;;;;;;;7.27;99.43;99795.61;105840;1253;67383;-68
2023/05/17 01:21:45;;;;;;;12.00;3.70;;;;;;;7.24;99.89;99798.69;105973;1253;73424;-70
2023/05/17 01:25:25;;;;;;;13.80;5.00;;;;;;;7.21;99.97;99796.41;106168;1254;59608;-69
2023/05/17 01:28:17;;;;;;;12.50;4.00;;;;;;;7.18;100.00;99793.27;105852;1260;59901;-68
2023/05/17 01:31:08;;;;;;;15.20;4.60;;;;;;;7.17;100.00;99789.95;105760;1254;73555;-68
2023/05/17 01:33:57;;;;;;;17.10;4.20;;;;;;;7.17;99.97;99788.74;106025;1253;67895;-71
2023/05/17 01:36:47;;;;;;;11.60;3.50;;;;;;;7.17;100.00;99793.66;105774;1253;72444;-71
2023/05/17 01:39:36;;;;;;;11.70;4.50;;;;;;;7.14;99.99;99792.98;105514;1264;59542;-71
2023/05/17 01:42:31;;;;;;;13.40;4.00;;;;;;;7.11;100.00;99794.77;105607;1258;60186;-70
2023/05/17 01:45:33;;;;;;;12.30;4.00;;;;;;;7.09;100.00;99798.42;105578;1253;71835;-68
2023/05/17 01:48:33;;;;;;;12.20;4.10;;;;;;;7.06;100.00;99798.79;105873;1260;67935;-71
2023/05/17 01:51:27;;;;;;;11.20;3.80;;;;;;;7.03;100.00;99803.65;105757;1253;73734;-72
2023/05/17 01:54:22;;;;;;;11.90;3.40;;;;;;;6.97;100.00;99805.61;105648;1253;59691;-70
2023/05/17 01:57:13;;;;;;;10.90;3.70;;;;;;;6.91;100.00;99806.53;105833;1258;59676;-71
2023/05/17 02:00:09;;;;;;;12.20;3.90;;;;;;;6.86;100.00;99806.55;105783;1253;72065;-69
2023/05/17 02:03:07;;;;;;;12.10;3.50;;;;;;;6.79;100.00;99808.51;105617;1254;67897;-70
2023/05/17 02:05:56;;;;;;;13.80;3.70;;;;;;;6.75;100.00;99811.96;105656;1259;73506;-69
2023/05/17 02:08:44;;;;;;;12.70;4.00;;;;;;;6.71;100.00;99810.46;105599;1260;59563;-70
2023/05/17 02:11:35;;;;;;;12.80;3.20;;;;;;;6.68;100.00;99807.87;105737;1261;60375;-70
2023/05/17 02:14:24;;;;;;;11.80;3.40;;;;;;;6.64;100.00;99803.66;106106;1259;71564;-71
2023/05/17 02:17:13;;;;;;;8.70;2.90;;;;;;;6.64;99.79;99804.60;106040;1262;68122;-70
2023/05/17 02:20:09;;;;;;;9.00;2.60;;;;;;;6.63;98.36;99804.81;106206;1258;72391;-71
2023/05/17 02:22:57;;;;;;;15.00;3.00;;;;;;;6.65;97.08;99805.05;105561;1259;60303;-69
2023/05/17 02:25:47;;;;;;;8.40;2.40;;;;;;;6.68;95.96;99802.23;105409;1263;59545;-71
2023/05/17 02:28:35;;;;;;;9.90;2.40;;;;;;;6.71;94.82;99803.10;105196;1262;73172;-70
2023/05/17 02:31:25;;;;;;;13.80;2.90;;;;;;;6.74;93.61;99803.06;105332;1260;68110;-70
2023/05/17 02:34:13;;;;;;;14.50;2.60;;;;;;;6.76;93.17;99802.55;105953;1258;72896;-71
2023/05/17 02:37:02;;;;;;;7.50;2.50;;;;;;;6.77;91.83;99805.49;105500;1253;59693;-69
2023/05/17 02:39:51;;;;;;;11.10;2.40;;;;;;;6.78;90.70;99807.91;105646;1253;60278;-70
2023/05/17 02:42:39;;;;;;;8.90;1.90;;;;;;;6.78;90.41;99806.99;105941;1259;73046;-72
2023/05/17 02:45:30;;;;;;;10.40;2.20;;;;;;;6.80;90.29;99803.38;105782;1257;67957;-70
2023/05/17 02:48:18;;;;;;;8.90;2.10;;;;;;;6.80;89.74;99806.52;105907;1257;73912;-71
2023/05/17 02:51:07;;;;;;;11.40;1.90;;;;;;;6.81;88.75;99813.16;105627;1262;59624;-70
2023/05/17 02:53:56;;;;;;;8.70;1.80;;;;;;;6.82;88.46;99810.61;105291;1260;59628;-70
2023/05/17 02:56:44;;;;;;;9.60;2.10;;;;;;;6.82;88.10;99811.46;105278;1259;73115;-71
2023/05/17 02:59:33;;;;;;;9.90;2.30;;;;;;;6.83;87.58;99812.87;105353;1262;68976;-71
2023/05/17 03:02:21;;;;;;;6.70;1.80;;;;;;;6.84;87.80;99808.92;105325;1260;72473;-71
2023/05/17 03:05:10;;;;;;;8.80;2.20;;;;;;;6.85;87.36;99809.22;105318;1265;59718;-70
2023/05/17 03:08:02;;;;;;;10.00;2.00;;;;;;;6.86;87.32;99813.60;105396;1259;60084;-71
2023/05/17 03:10:51;;;;;;;8.20;1.90;;;;;;;6.87;87.15;99813.34;105811;1262;73032;-73
2023/05/17 03:13:39;;;;;;;8.40;2.40;;;;;;;6.87;87.08;99816.29;105692;1258;68089;-67
2023/05/17 03:16:29;;;;;;;10.30;2.10;;;;;;;6.86;86.99;99817.60;106755;1259;71570;-72
2023/05/17 03:19:19;;;;;;;10.90;2.00;;;;;;;6.87;87.10;99821.24;105709;1261;59708;-70
2023/05/17 03:22:08;;;;;;;9.70;2.20;;;;;;;6.88;86.76;99824.55;105735;1267;60407;-70
2023/05/17 03:24:57;;;;;;;9.20;2.10;;;;;;;6.87;86.71;99834.46;105583;1254;73068;-70
2023/05/17 03:27:46;;;;;;;8.00;2.00;;;;;;;6.87;87.05;99833.25;106121;1257;67673;-69
2023/05/17 03:30:36;;;;;;;10.20;2.00;;;;;;;6.87;86.89;99837.99;105667;1256;73828;-69
2023/05/17 03:33:25;;;;;;;13.20;2.80;;;;;;;6.88;86.89;99843.59;105804;1265;59697;-72
2023/05/17 03:36:14;;;;;;;10.70;2.40;;;;;;;6.89;87.13;99842.12;106256;1254;60357;-70
2023/05/17 03:39:02;;;;;;;10.20;2.70;;;;;;;6.90;86.97;99848.93;105627;1258;72756;-70
2023/05/17 03:41:52;;;;;;;8.30;2.30;;;;;;;6.92;87.06;99852.86;105699;1253;66410;-73
2023/05/17 03:44:41;;;;;;;9.50;2.10;;;;;;;6.92;87.06;99856.92;105643;1253;72669;-72
2023/05/17 03:47:30;;;;;;;11.00;2.40;;;;;;;6.93;87.15;99858.91;105641;1253;59607;-72
2023/05/17 03:50:19;;;;;;;9.40;2.20;;;;;;;6.97;87.14;99853.59;105523;1255;61030;-73
2023/05/17 03:53:09;;;;;;;8.40;2.10;;;;;;;7.02;87.02;99840.00;105489;1259;73004;-72
2023/05/17 03:55:59;;;;;;;8.40;2.10;;;;;;;7.09;86.51;99839.05;105772;1256;66842;-72
2023/05/17 03:58:49;;;;;;;10.40;2.90;;;;;;;7.14;86.58;99845.41;105737;1256;72513;-72
2023/05/17 04:01:37;;;;;;;9.90;2.40;;;;;;;7.21;86.56;99849.55;105596;1262;59550;-71
2023/05/17 04:04:26;;;;;;;8.10;2.40;;;;;;;7.25;86.30;99845.36;105815;1259;59919;-72
2023/05/17 04:07:16;;;;;;;8.50;2.00;;;;;;;7.30;85.94;99848.92;105667;1256;72936;-72
2023/05/17 04:10:06;;;;;;;9.60;2.30;;;;;;;7.33;85.89;99849.41;105669;1257;66735;-72
2023/05/17 04:12:54;;;;;;;9.30;2.70;;;;;;;7.39;85.62;99874.48;105668;1255;72595;-72
2023/05/17 04:15:43;;;;;;;11.50;2.70;;;;;;;7.42;85.55;99865.38;105791;1254;59631;-71
2023/05/17 04:18:37;;;;;;;11.30;2.30;;;;;;;7.44;85.07;99842.28;105711;1257;60307;-71
2023/05/17 04:21:26;;;;;;;8.00;2.40;;;;;;;7.49;85.22;99847.27;105599;1254;71623;-70
2023/05/17 04:24:16;;;;;;;10.20;2.50;;;;;;;7.48;85.07;99856.84;106201;1261;67655;-70
2023/05/17 04:27:06;;;;;;;9.30;2.60;;;;;;;7.53;85.12;99863.44;107569;1253;73810;-70
2023/05/17 04:29:56;;;;;;;10.50;2.60;;;;;;;7.56;85.04;99865.72;108338;1253;59967;-71
2023/05/17 04:32:46;;;;;;;11.20;2.50;;;;;;;7.63;85.18;99867.01;106620;1253;60237;-73
2023/05/17 04:35:38;;;;;;;9.50;2.50;;;;;;;7.67;84.90;99873.41;106061;1253;71396;-72
2023/05/17 04:38:27;;;;;;;9.20;2.60;;;;;;;7.75;85.03;99881.02;105903;1253;67909;-72
2023/05/17 04:41:16;;;;;;;9.50;2.80;;;;;;;7.76;84.59;99892.94;105882;1259;72940;-72
2023/05/17 04:44:06;;;;;;;10.70;2.90;;;;;;;7.76;84.87;99894.89;105730;1260;59719;-70
2023/05/17 04:46:58;;;;;;;17.60;2.90;;;;;;;7.80;84.85;99886.98;105741;1253;60180;-71
2023/05/17 04:49:50;;;;;;;11.70;2.70;;;;;;;7.90;84.58;99883.55;105769;1262;73437;-73
2023/05/17 04:52:38;;;;;;;13.80;3.20;;;;;;;8.04;84.30;99883.04;105844;1259;67896;-70
2023/05/17 04:55:27;;;;;;;12.40;3.50;;;;;;;8.24;84.07;99880.45;105690;1254;71518;-73
2023/05/17 04:58:17;;;;;;;10.40;3.00;;;;;;;8.44;82.95;99882.56;105489;1261;60397;-71
2023/05/17 05:01:08;;;;;;;12.40;3.40;;;;;;;8.49;82.39;99887.73;106528;1261;60356;-72
2023/05/17 05:03:57;;;;;;;11.90;2.90;;;;;;;8.57;82.28;99888.02;105671;1253;72906;-70
2023/05/17 05:06:46;;;;;;;13.70;3.70;;;;;;;8.72;81.85;99887.45;106025;1254;66300;-72
2023/05/17 05:09:35;;;;;;;11.90;3.50;;;;;;;8.98;81.24;99881.70;105861;1254;71223;-78
2023/05/17 05:12:25;;;;;;;11.80;3.60;;;;;;;9.48;80.17;99879.90;106766;1263;59637;-75
2023/05/17 05:15:13;;;;;;;14.90;3.60;;;;;;;10.27;76.18;99868.16;106293;1253;59688;-76
2023/05/17 05:18:04;;;;;;;14.00;3.60;;;;;;;11.15;71.74;99885.17;106055;1257;72841;-74
2023/05/17 05:20:53;;;;;;;12.60;3.10;;;;;;;11.76;68.49;99878.25;105842;1259;67174;-75
2023/05/17 05:23:43;;;;;;;14.80;3.40;;;;;;;12.62;66.78;99878.90;106132;1260;71401;-76
2023/05/17 05:26:32;;;;;;;12.80;3.90;;;;;;;13.45;63.06;99878.30;105785;1263;60033;-76
2023/05/17 05:29:22;;;;;;;13.50;3.40;;;;;;;14.20;61.64;99882.39;106198;1256;59673;-77
2023/05/17 05:32:14;;;;;;;12.20;3.50;;;;;;;14.92;59.01;99888.52;105965;1259;73222;-76
2023/05/17 05:35:06;;;;;;;11.20;3.20;;;;;;;15.55;55.40;99890.66;105835;1256;67175;-77
2023/05/17 05:37:56;;;;;;;12.60;3.30;;;;;;;15.97;53.31;99887.26;105850;1260;71113;-77
2023/05/17 05:40:48;;;;;;;12.40;3.20;;;;;;;16.40;52.10;99884.81;105695;1257;59638;-75
2023/05/17 05:43:36;;;;;;;12.40;3.00;;;;;;;16.95;50.80;99882.17;105793;1264;60412;-77
2023/05/17 05:46:26;;;;;;;10.80;2.90;;;;;;;17.31;48.14;99881.69;105320;1254;72543;-77
2023/05/17 05:49:14;;;;;;;10.10;3.00;;;;;;;18.03;47.54;99887.78;105758;1254;66238;-76
2023/05/17 05:52:03;;;;;;;9.20;2.80;;;;;;;18.74;45.97;99883.58;105702;1259;72738;-76
2023/05/17 05:54:53;;;;;;;9.80;3.20;;;;;;;19.47;42.99;99889.61;105877;1256;59648;-77
2023/05/17 05:57:41;;;;;;;13.10;3.40;;;;;;;20.14;41.67;99885.41;105810;1254;60124;-79
2023/05/17 06:00:29;;;;;;;11.20;2.70;;;;;;;20.58;39.97;99884.53;105832;1256;73179;-78
2023/05/17 06:03:18;;;;;;;9.50;2.90;;;;;;;20.69;37.34;99880.50;105958;1259;66534;-74
2023/05/17 06:06:07;;;;;;;11.40;2.60;;;;;;;20.81;36.75;99886.59;105662;1259;73416;-75
2023/05/17 06:08:56;;;;;;;8.80;2.40;;;;;;;20.62;36.65;99886.42;105831;1257;59730;-78
2023/05/17 06:11:46;;;;;;;9.50;2.40;;;;;;;21.03;36.07;99890.06;105841;1258;59529;-76
2023/05/17 06:14:36;;;;;;;10.50;2.40;;;;;;;21.41;34.08;99889.96;106209;1259;73386;-74
2023/05/17 06:17:24;;;;;;;10.10;2.20;;;;;;;21.57;32.56;99897.02;105908;1260;69065;-72
2023/05/17 06:20:13;;;;;;;10.80;2.50;;;;;;;21.62;31.29;99894.34;105717;1262;70391;-73
2023/05/17 06:23:03;;;;;;;9.40;2.20;;;;;;;22.22;32.14;99894.44;105704;1264;59679;-77
2023/05/17 06:25:59;;;;;;;8.80;2.20;;;;;;;22.75;31.07;99890.28;106006;1257;60200;-77
2023/05/17 06:28:50;;;;;;;8.40;2.30;;;;;;;22.52;30.69;99894.81;105821;1255;73069;-77
2023/05/17 06:31:39;;;;;;;10.50;2.60;;;;;;;22.76;30.52;99892.71;105716;1254;67929;-73
2023/05/17 06:34:29;;;;;;;9.30;2.30;;;;;;;22.99;29.83;99894.70;106125;1257;71876;-77
2023/05/17 06:37:18;;;;;;;11.80;2.40;;;;;;;22.91;29.15;99896.46;105932;1256;59698;-76
2023/05/17 06:40:09;;;;;;;7.60;2.30;;;;;;;22.74;29.24;99902.58;105517;1263;60320;-76
2023/05/17 06:43:04;;;;;;;8.60;2.20;;;;;;;22.30;30.20;99903.70;105578;1265;72984;-75
2023/05/17 06:45:53;;;;;;;9.60;2.20;;;;;;;22.29;30.66;99906.98;105568;1264;67796;-75
2023/05/17 06:48:43;;;;;;;9.80;2.20;;;;;;;21.75;31.56;99913.55;105657;1259;72741;-75
2023/05/17 06:51:34;;;;;;;10.50;2.40;;;;;;;20.63;33.14;99913.46;105795;1261;59661;-77
2023/05/17 06:54:22;;;;;;;10.10;2.20;;;;;;;19.49;34.68;99922.05;105472;1260;60365;-75
2023/05/17 06:57:13;;;;;;;10.90;2.40;;;;;;;18.40;36.78;99928.02;105388;1264;72950;-74
2023/05/17 07:00:09;;;;;;;8.70;2.40;;;;;;;17.47;38.71;99935.92;105445;1260;68716;-75
2023/05/17 07:02:57;;;;;;;9.50;2.40;;;;;;;16.78;40.32;99943.42;105470;1260;71198;-75
2023/05/17 07:05:46;;;;;;;10.40;3.90;;;;;;;16.24;41.44;99949.98;105556;1265;59746;-75
2023/05/17 07:08:35;;;;;;;8.90;2.50;;;;;;;15.72;42.50;99950.95;105510;1259;60124;-73
2023/05/17 07:11:27;;;;;;;14.30;3.50;;;;;;;15.03;43.68;99956.86;105545;1265;73119;-72
2023/05/17 07:14:15;;;;;;;14.30;4.20;;;;;;;14.40;45.04;99959.91;105594;1256;66376;-72
2023/05/17 07:17:04;;;;;;;13.80;4.10;;;;;;;14.08;46.35;99967.14;105696;1261;71592;-74
2023/05/17 07:19:52;;;;;;;9.10;2.80;;;;;;;13.78;47.30;99968.88;105754;1256;59795;-73
2023/05/17 07:22:41;;;;;;;10.00;3.20;;;;;;;13.40;48.81;99976.61;105935;1257;60103;-73
2023/05/17 07:25:31;;;;;;;11.40;3.10;;;;;;;13.15;50.13;99982.41;105796;1254;73169;-74
2023/05/17 07:28:20;;;;;;;13.00;3.40;;;;;;;13.21;50.51;99984.23;105813;1254;66755;-75
2023/05/17 07:31:08;;;;;;;18.00;8.00;;;;;;;13.21;51.06;99991.15;106094;1263;72374;-75
2023/05/17 07:33:57;;;;;;;12.40;4.10;;;;;;;13.10;51.20;99994.61;105630;1260;59743;-76
2023/05/17 07:36:45;;;;;;;15.90;4.90;;;;;;;12.99;51.62;99994.38;105962;1269;59678;-73
2023/05/17 07:39:35;;;;;;;13.90;3.20;;;;;;;12.85;52.57;99999.50;106211;1259;73539;-72
2023/05/17 07:42:23;;;;;;;12.40;5.40;;;;;;;12.72;53.30;100000.09;105788;1265;67890;-73
2023/05/17 07:45:16;;;;;;;10.50;3.30;;;;;;;12.64;54.13;100000.30;105558;1261;72748;-73
2023/05/17 07:48:04;;;;;;;11.70;3.00;;;;;;;13.05;53.03;100001.98;105503;1264;59713;-75
2023/05/17 07:50:53;;;;;;;19.40;9.50;;;;;;;13.30;52.60;100000.25;105451;1265;59590;-74
2023/05/17 07:53:41;;;;;;;12.60;3.30;;;;;;;13.33;52.01;100007.70;105321;1259;72878;-72
2023/05/17 07:56:32;;;;;;;11.60;4.30;;;;;;;13.27;52.21;100006.64;105347;1266;68043;-74
2023/05/17 07:59:24;;;;;;;13.80;3.60;;;;;;;13.11;52.28;100012.14;105282;1267;73467;-70
2023/05/17 08:02:12;;;;;;;12.30;2.70;;;;;;;12.93;52.99;100016.95;105473;1265;59721;-70
2023/05/17 08:05:01;;;;;;;12.40;3.00;;;;;;;12.81;53.15;100021.39;105563;1263;59912;-71
2023/05/17 08:07:51;;;;;;;12.00;2.70;;;;;;;12.70;53.93;100023.95;105754;1254;73874;-69
2023/05/17 08:10:42;;;;;;;11.00;2.60;;;;;;;12.55;54.32;100032.31;105844;1261;68258;-70
2023/05/17 08:13:30;;;;;;;12.20;2.70;;;;;;;12.33;55.13;100030.51;105854;1260;72867;-68
2023/05/17 08:16:18;;;;;;;12.30;3.40;;;;;;;12.12;55.88;100039.58;105697;1255;59670;-69
2023/05/17 08:19:06;;;;;;;16.50;2.90;;;;;;;11.83;57.02;100045.16;105726;1254;59659;-72
2023/05/17 08:21:55;;;;;;;15.60;3.10;;;;;;;11.56;57.75;100047.70;105709;1259;73123;-70
2023/05/17 08:24:44;;;;;;;15.20;3.30;;;;;;;11.29;59.76;100044.92;105540;1258;67726;-69
2023/05/17 08:27:32;;;;;;;11.80;3.20;;;;;;;11.17;60.50;100049.78;105060;1255;1003259;-67
2023/05/17 08:30:22;;;;;;;14.80;3.30;;;;;;;11.21;61.12;100056.77;105610;1260;59634;-71
2023/05/17 08:33:16;;;;;;;11.30;2.80;;;;;;;11.29;60.73;100060.58;105493;1254;59837;-69
2023/05/17 08:36:06;;;;;;;11.50;2.80;;;;;;;11.24;60.28;100068.27;105774;1255;72946;-71
2023/05/17 08:38:57;;;;;;;11.00;3.10;;;;;;;11.19;60.17;100064.92;105624;1256;66779;-69
2023/05/17 08:41:49;;;;;;;12.10;3.00;;;;;;;11.15;60.72;100075.13;105830;1262;71125;-69
2023/05/17 08:44:38;;;;;;;13.40;3.50;;;;;;;11.02;61.12;100076.88;105563;1262;59651;-68
2023/05/17 08:47:30;;;;;;;13.40;3.00;;;;;;;11.08;61.25;100073.42;105755;1261;59577;-71
2023/05/17 08:50:19;;;;;;;11.50;3.00;;;;;;;11.28;61.29;100077.34;105643;1257;71781;-69
2023/05/17 08:53:08;;;;;;;10.60;2.90;;;;;;;11.48;60.97;100077.31;105972;1259;68053;-69
2023/05/17 08:56:01;;;;;;;11.30;3.20;;;;;;;11.62;59.59;100079.59;105587;1264;72477;-70
2023/05/17 08:58:55;;;;;;;12.70;2.90;;;;;;;11.81;57.47;100085.15;105492;1260;59701;-69
2023/05/17 09:01:48;;;;;;;12.00;3.00;;;;;;;12.29;55.43;100086.32;105809;1260;59689;-69
2023/05/17 09:04:38;;;;;;;10.20;2.50;;;;;;;13.13;53.61;100083.04;105247;1255;73984;-70
2023/05/17 09:07:26;;;;;;;11.30;3.00;;;;;;;13.76;50.18;100075.30;106111;1260;67727;-69
2023/05/17 09:10:15;;;;;;;13.20;2.90;;;;;;;13.91;48.89;100075.16;105593;1254;71092;-70
2023/05/17 09:13:03;;;;;;;10.60;2.80;;;;;;;13.77;49.35;100072.23;105538;1262;59650;-68
2023/05/17 09:15:53;;;;;;;13.00;3.00;;;;;;;13.69;49.10;100077.73;105655;1270;60207;-68
2023/05/17 09:18:42;;;;;;;11.40;2.30;;;;;;;14.34;46.41;100081.14;105666;1270;73787;-71
2023/05/17 09:21:31;;;;;;;8.60;2.10;;;;;;;15.57;43.07;100067.92;105682;1262;67880;-70
2023/05/17 09:24:29;;;;;;;10.60;2.30;;;;;;;16.41;40.90;100070.09;105534;1260;71449;-69
2023/05/17 09:27:18;;;;;;;8.00;1.80;;;;;;;17.64;39.30;100062.92;105627;1262;59602;-68
2023/05/17 09:30:11;;;;;;;10.40;2.10;;;;;;;18.58;37.79;100063.13;105787;1260;59605;-68
2023/05/17 09:33:08;;;;;;;8.70;2.10;;;;;;;18.40;35.00;100069.92;105644;1264;73060;-68
2023/05/17 09:35:57;;;;;;;10.00;1.60;;;;;;;18.03;34.16;100071.69;105970;1257;66946;-68
2023/05/17 09:39:00;;;;;;;10.50;2.10;;;;;;;18.53;33.89;100074.05;105442;1260;71074;-70
2023/05/17 09:41:55;;;;;;;10.70;2.30;;;;;;;19.71;32.92;100080.39;105642;1261;59614;-72
2023/05/17 09:44:49;;;;;;;11.30;2.10;;;;;;;20.75;31.52;100082.42;105680;1260;60087;-69
2023/05/17 09:47:39;;;;;;;10.40;1.90;;;;;;;21.51;30.11;100079.79;105568;1264;72111;-70
2023/05/17 09:50:32;;;;;;;9.60;1.70;;;;;;;21.80;29.13;100083.87;105958;1261;66458;-72
2023/05/17 09:53:29;;;;;;;8.30;1.70;;;;;;;21.48;28.39;100085.09;105610;1261;72711;-72
2023/05/17 09:56:18;;;;;;;9.30;1.80;;;;;;;21.83;27.85;100088.23;105822;1254;59647;-72
2023/05/17 09:59:16;;;;;;;9.00;2.10;;;;;;;22.14;27.42;100091.13;105761;1254;59737;-70
2023/05/17 10:02:11;;;;;;;7.90;1.70;;;;;;;22.45;27.02;100089.48;106624;1255;71682;-70
2023/05/17 10:05:06;;;;;;;10.00;1.70;;;;;;;22.40;25.99;100091.63;106606;1255;67534;-71
2023/05/17 10:07:55;;;;;;;10.10;1.70;;;;;;;22.07;26.28;100098.39;106439;1260;71523;-73
2023/05/17 10:10:45;;;;;;;10.50;2.40;;;;;;;21.81;27.05;100092.89;106121;1264;59674;-68
2023/05/17 10:13:54;;;;;;;9.10;2.00;;;;;;;21.55;27.32;100091.40;105696;1259;60012;-71
2023/05/17 10:16:43;;;;;;;8.70;1.70;;;;;;;21.45;27.57;100083.36;105649;1260;73081;-72
2023/05/17 10:19:31;;;;;;;9.30;2.00;;;;;;;22.05;27.82;100099.16;105798;1261;66328;-71
2023/05/17 10:22:22;;;;;;;8.40;1.80;;;;;;;22.69;27.08;100109.32;105691;1260;72745;-69
2023/05/17 10:25:12;;;;;;;8.40;1.90;;;;;;;22.69;25.46;100113.56;105382;1260;59665;-70
2023/05/17 10:28:01;;;;;;;8.80;1.90;;;;;;;22.78;26.07;100113.77;105812;1254;60720;-70
2023/05/17 10:30:51;;;;;;;9.60;2.40;;;;;;;23.23;25.64;100113.33;105673;1254;73253;-70
2023/05/17 10:33:43;;;;;;;9.60;1.80;;;;;;;23.69;24.76;100106.75;105661;1268;66540;-70
2023/05/17 10:36:32;;;;;;;9.60;1.90;;;;;;;23.76;24.31;100107.33;107321;1254;72721;-69
2023/05/17 10:39:21;;;;;;;7.80;1.90;;;;;;;23.85;24.60;100106.31;108120;1254;59124;-70
2023/05/17 10:42:10;;;;;;;11.10;1.90;;;;;;;23.90;25.12;100103.73;107453;1254;60855;-70
2023/05/17 10:45:03;;;;;;;10.50;2.30;;;;;;;24.12;24.85;100105.48;106773;1254;71795;-71
2023/05/17 10:47:52;;;;;;;8.90;1.90;;;;;;;24.51;24.05;100103.38;106106;1258;66557;-70
2023/05/17 10:50:44;;;;;;;9.30;2.00;;;;;;;24.66;23.55;100113.05;105717;1255;71436;-70
2023/05/17 10:54:17;;;;;;;10.20;1.90;;;;;;;24.87;23.21;100110.27;105974;1270;59546;-72
2023/05/17 10:57:07;;;;;;;10.50;2.30;;;;;;;24.69;22.97;100114.20;105339;1266;59997;-68
2023/05/17 11:00:05;;;;;;;10.20;1.60;;;;;;;24.68;22.08;100123.23;105107;1266;71544;-71
2023/05/17 11:03:11;;;;;;;10.10;2.30;;;;;;;24.68;22.23;100123.93;105246;1264;66560;-70
2023/05/17 11:06:14;;;;;;;10.70;2.10;;;;;;;24.20;22.93;100121.81;105064;1267;73630;-67
2023/05/17 11:09:17;;;;;;;11.10;2.00;;;;;;;23.79;22.96;100122.80;105398;1269;59778;-69
2023/05/17 11:12:10;;;;;;;9.30;2.10;;;;;;;23.27;23.74;100131.58;105079;1262;60367;-68
2023/05/17 11:14:59;;;;;;;9.10;2.00;;;;;;;22.80;24.19;100133.39;105072;1264;74091;-69
2023/05/17 11:17:55;;;;;;;12.70;2.50;;;;;;;22.34;25.31;100135.52;105148;1267;66311;-71
2023/05/17 11:20:43;;;;;;;9.70;1.90;;;;;;;22.05;26.16;100138.17;105159;1263;71066;-70
2023/05/17 11:23:34;;;;;;;8.90;2.10;;;;;;;21.56;25.92;100142.95;105144;1270;59813;-73
2023/05/17 11:26:39;;;;;;;10.80;2.10;;;;;;;21.00;26.51;100149.23;105091;1266;60307;-70
2023/05/17 11:29:29;;;;;;;10.20;2.50;;;;;;;20.41;27.53;100149.00;105113;1269;73116;-69
2023/05/17 11:32:26;;;;;;;10.40;2.20;;;;;;;20.29;28.21;100151.26;105182;1266;67806;-70
2023/05/17 11:35:17;;;;;;;9.40;2.30;;;;;;;19.86;28.72;100159.34;105449;1254;72488;-71
2023/05/17 11:38:20;;;;;;;10.10;1.90;;;;;;;19.46;29.64;100157.21;105568;1254;59609;-71
2023/05/17 11:41:18;;;;;;;9.50;2.30;;;;;;;19.21;30.30;100161.25;105585;1254;60289;-68
2023/05/17 11:44:10;;;;;;;12.40;2.30;;;;;;;18.80;30.25;100159.36;105760;1254;73188;-72
2023/05/17 11:47:08;;;;;;;10.10;2.10;;;;;;;18.21;31.45;100156.44;105878;1258;68917;-69
2023/05/17 11:50:01;;;;;;;11.50;2.30;;;;;;;17.59;32.59;100161.04;106606;1261;71102;-72
2023/05/17 11:52:53;;;;;;;12.40;2.30;;;;;;;17.27;33.83;100167.60;106866;1257;59637;-72
2023/05/17 11:55:44;;;;;;;11.30;2.50;;;;;;;17.06;34.42;100170.88;105609;1260;59570;-71
2023/05/17 11:58:34;;;;;;;10.60;2.20;;;;;;;16.72;34.73;100176.40;105590;1255;73108;-71
2023/05/17 12:01:23;;;;;;;9.20;2.10;;;;;;;16.67;35.18;100172.84;105787;1260;67662;-69
2023/05/17 12:04:12;;;;;;;10.10;2.40;;;;;;;16.76;35.50;100168.70;105638;1260;72702;-71
2023/05/17 12:07:01;;;;;;;9.70;2.40;;;;;;;16.58;34.95;100174.98;105504;1260;59575;-69
2023/05/17 12:09:51;;;;;;;10.20;2.40;;;;;;;16.14;35.11;100184.36;105726;1259;60292;-70
2023/05/17 12:12:40;;;;;;;11.10;2.20;;;;;;;15.79;35.91;100190.26;106070;1258;71554;-70
2023/05/17 12:15:30;;;;;;;12.90;2.10;;;;;;;15.40;37.31;100198.84;105685;1260;67859;-71
2023/05/17 12:18:19;;;;;;;11.10;2.30;;;;;;;15.01;37.61;100189.16;104763;1264;1003402;-71
2023/05/17 12:21:13;;;;;;;12.40;2.40;;;;;;;14.84;37.31;100204.13;105555;1254;59734;-71
2023/05/17 12:24:01;;;;;;;13.20;2.80;;;;;;;14.75;38.21;100205.90;105832;1254;61842;-70
2023/05/17 12:26:49;;;;;;;12.50;2.50;;;;;;;14.84;38.54;100206.29;105545;1260;71956;-71
2023/05/17 12:29:38;;;;;;;11.00;2.30;;;;;;;14.70;38.32;100207.42;105561;1260;68086;-70
2023/05/17 12:32:26;;;;;;;11.20;2.30;;;;;;;14.68;38.73;100211.55;105558;1258;72394;-71
2023/05/17 12:35:15;;;;;;;8.40;2.10;;;;;;;14.51;37.77;100204.48;105735;1254;60841;-70
2023/05/17 12:38:04;;;;;;;9.70;2.30;;;;;;;14.26;37.46;100206.36;105534;1260;60349;-72
2023/05/17 12:40:53;;;;;;;9.30;2.20;;;;;;;14.14;38.39;100215.30;105540;1254;71793;-68
2023/05/17 12:43:44;;;;;;;10.90;2.30;;;;;;;14.02;38.84;100219.93;105591;1254;68221;-71
2023/05/17 12:46:34;;;;;;;12.30;2.70;;;;;;;13.84;39.14;100214.96;105856;1254;73174;-71
2023/05/17 12:49:22;;;;;;;12.40;2.60;;;;;;;13.82;39.92;100209.81;105698;1257;59642;-70
2023/05/17 12:52:12;;;;;;;9.20;2.00;;;;;;;13.85;39.43;100209.20;105685;1254;61162;-70
2023/05/17 12:55:05;;;;;;;10.40;2.20;;;;;;;13.75;39.66;100213.39;105696;1258;72811;-70
2023/05/17 12:57:55;;;;;;;11.60;2.30;;;;;;;13.74;39.98;100213.13;104962;1254;1002902;-72
2023/05/17 13:01:02;;;;;;;14.10;2.70;;;;;;;13.76;40.32;100212.46;105696;1254;72365;-71
2023/05/17 13:03:50;;;;;;;11.40;2.00;;;;;;;13.65;39.70;100218.62;105745;1265;59640;-70
2023/05/17 13:06:59;;;;;;;8.80;2.00;;;;;;;13.51;38.83;100227.46;105632;1264;60206;-73
2023/05/17 13:09:48;;;;;;;11.60;2.10;;;;;;;13.42;39.24;100236.10;105654;1254;72896;-72